This is the latest recevied weather packets stored in our database for station/object 9D9-WX. If no packets are shown the sender has not sent any weather packets the latest 10 day(s).
| Time | Temp. | Humidity | Pressure | Rain* | Wind** | Luminosity | Snow |
|---|---|---|---|---|---|---|---|
| 1777506308 | 7.78° C | 90% | 984.2 hPa | 0 mm | - | - | - |
| 1777505421 | 7.78° C | 90% | 984.4 hPa | 0 mm | - | - | - |
| 1777504509 | 7.78° C | 90% | 984.4 hPa | 0 mm | - | - | - |
| 1777503629 | 7.78° C | 90% | 984.4 hPa | 0 mm | - | - | - |
| 1777502709 | 7.78° C | 89% | 983.9 hPa | 0 mm | - | - | - |
| 1777501820 | 8.33° C | 91% | 984.6 hPa | 0 mm | - | - | - |
| 1777500909 | 7.78° C | 91% | 984.5 hPa | 1.02 mm | - | - | - |
| 1777500030 | 7.78° C | 91% | 984.5 hPa | 1.02 mm | - | - | - |
| 1777499108 | 7.78° C | 91% | 984 hPa | 2.79 mm | - | - | - |
| 1777498225 | 8.33° C | 92% | 983.5 hPa | 2.79 mm | - | - | - |
| 1777497309 | 8.33° C | 92% | 983.5 hPa | 1.27 mm | - | - | - |
| 1777496429 | 8.33° C | 92% | 983.5 hPa | 1.27 mm | - | - | - |
| 1777495509 | 8.89° C | 89% | 984.5 hPa | 1.27 mm | - | - | - |
| 1777494624 | 8.89° C | 89% | 983.3 hPa | 1.52 mm | - | - | - |
| 1777493709 | 8.89° C | 89% | 983.3 hPa | 1.52 mm | - | - | - |
| 1777492829 | 8.89° C | 91% | 982.6 hPa | 1.52 mm | - | - | - |
| 1777491910 | 9.44° C | 88% | 982.8 hPa | 1.52 mm | - | - | - |
| 1777491025 | 9.44° C | 88% | 982.8 hPa | 1.52 mm | - | - | - |
| 1777490109 | 9.44° C | 88% | 982.8 hPa | 1.27 mm | - | - | - |
| 1777489229 | 10° C | 88% | 982.8 hPa | 1.27 mm | - | - | - |
| 1777488309 | 10° C | 82% | 983.3 hPa | 0.51 mm | - | - | - |
| 1777487426 | 10° C | 83% | 982.2 hPa | 0.51 mm | - | - | - |
| 1777486509 | 10° C | 83% | 982.2 hPa | 0 mm | - | - | - |
| 1777485627 | 10° C | 83% | 982.2 hPa | 0 mm | - | - | - |
| 1777484709 | 10° C | 77% | 983.5 hPa | 0 mm | - | - | - |
* Rain latest hour (hover to see other rain measurements)
** Current wind speed in m/s (hover to see current wind gust speed)